Meadow, Utah
Current Conditions -  °F | °C
As of 8:35 PM on Friday 24 Oct 2014 (Local Time) from KDTA Reporting Station
Clear Clear  
Wind Chill: 62°   Ceiling: Unl
Heat Index: 62°   Visibility: 10mi
Dew Point: 23°   Wind: 8mph
Humidity: 23%   Direction: 150°SSE
Pressure: 30.12"   Gusts: NA
Location:  38.89°N, 112.41°W
Report Text: KDTA 250235Z AUTO 15007KT 10SM CLR 17/M05 A3012 RMK AO1 T01661050
Loading
Personal Weather Stations






























Interactive Weather Map
Tropical Storm Tracking
New forecast layout! Learn more

10-Day Weather Forecast

Advertisements
Track Severe Weather on mobile